sensor_id;sensor_type;location;lat;lon;timestamp;P1;durP1;ratioP1;P2;durP2;ratioP2
22024;SDS011;11176;51.448;6.650;2023-01-09T00:00:30;3.17;;;1.58;;
22024;SDS011;11176;51.448;6.650;2023-01-09T00:02:56;4.63;;;1.85;;
22024;SDS011;11176;51.448;6.650;2023-01-09T00:05:23;3.92;;;1.70;;
22024;SDS011;11176;51.448;6.650;2023-01-09T00:07:50;3.67;;;1.40;;
22024;SDS011;11176;51.448;6.650;2023-01-09T00:10:16;4.18;;;1.60;;
22024;SDS011;11176;51.448;6.650;2023-01-09T00:12:43;5.38;;;1.80;;
22024;SDS011;11176;51.448;6.650;2023-01-09T00:15:10;3.33;;;1.63;;
22024;SDS011;11176;51.448;6.650;2023-01-09T00:17:37;5.38;;;1.80;;
22024;SDS011;11176;51.448;6.650;2023-01-09T00:20:05;3.92;;;1.40;;
22024;SDS011;11176;51.448;6.650;2023-01-09T00:22:33;3.38;;;1.25;;
22024;SDS011;11176;51.448;6.650;2023-01-09T00:24:59;4.10;;;1.25;;
22024;SDS011;11176;51.448;6.650;2023-01-09T00:27:28;2.65;;;1.20;;
22024;SDS011;11176;51.448;6.650;2023-01-09T00:29:56;5.05;;;1.30;;
22024;SDS011;11176;51.448;6.650;2023-01-09T00:32:22;2.17;;;1.05;;
22024;SDS011;11176;51.448;6.650;2023-01-09T00:34:49;3.92;;;1.10;;
22024;SDS011;11176;51.448;6.650;2023-01-09T00:37:15;3.17;;;0.80;;
22024;SDS011;11176;51.448;6.650;2023-01-09T00:39:42;2.33;;;1.00;;
22024;SDS011;11176;51.448;6.650;2023-01-09T00:42:13;2.70;;;0.80;;
22024;SDS011;11176;51.448;6.650;2023-01-09T00:44:48;2.63;;;0.70;;
22024;SDS011;11176;51.448;6.650;2023-01-09T00:47:25;1.40;;;0.65;;
22024;SDS011;11176;51.448;6.650;2023-01-09T00:49:59;1.40;;;0.70;;
22024;SDS011;11176;51.448;6.650;2023-01-09T00:52:30;2.88;;;0.70;;
22024;SDS011;11176;51.448;6.650;2023-01-09T00:54:59;2.53;;;0.68;;
22024;SDS011;11176;51.448;6.650;2023-01-09T00:57:26;1.00;;;0.50;;
22024;SDS011;11176;51.448;6.650;2023-01-09T00:59:53;2.33;;;0.60;;
22024;SDS011;11176;51.448;6.650;2023-01-09T01:02:19;1.55;;;0.68;;
22024;SDS011;11176;51.448;6.650;2023-01-09T01:04:46;1.38;;;0.50;;
22024;SDS011;11176;51.448;6.650;2023-01-09T01:07:31;2.22;;;0.65;;
22024;SDS011;11176;51.448;6.650;2023-01-09T01:10:10;1.88;;;0.60;;
22024;SDS011;11176;51.448;6.650;2023-01-09T01:12:39;1.25;;;0.60;;
22024;SDS011;11176;51.448;6.650;2023-01-09T01:15:06;2.50;;;0.98;;
22024;SDS011;11176;51.448;6.650;2023-01-09T01:17:37;1.48;;;0.75;;
22024;SDS011;11176;51.448;6.650;2023-01-09T01:20:05;2.17;;;0.70;;
22024;SDS011;11176;51.448;6.650;2023-01-09T01:22:36;1.52;;;0.70;;
22024;SDS011;11176;51.448;6.650;2023-01-09T01:25:03;2.33;;;0.70;;
22024;SDS011;11176;51.448;6.650;2023-01-09T01:27:30;1.88;;;0.82;;
22024;SDS011;11176;51.448;6.650;2023-01-09T01:29:57;1.40;;;0.60;;
22024;SDS011;11176;51.448;6.650;2023-01-09T01:32:23;2.70;;;0.80;;
22024;SDS011;11176;51.448;6.650;2023-01-09T01:34:50;2.17;;;0.90;;
22024;SDS011;11176;51.448;6.650;2023-01-09T01:37:16;2.20;;;0.95;;
22024;SDS011;11176;51.448;6.650;2023-01-09T01:39:43;1.67;;;0.80;;
22024;SDS011;11176;51.448;6.650;2023-01-09T01:42:12;2.05;;;0.80;;
22024;SDS011;11176;51.448;6.650;2023-01-09T01:50:14;2.00;;;0.95;;
22024;SDS011;11176;51.448;6.650;2023-01-09T01:52:43;1.75;;;1.00;;
22024;SDS011;11176;51.448;6.650;2023-01-09T01:55:13;2.25;;;0.70;;
22024;SDS011;11176;51.448;6.650;2023-01-09T01:57:41;1.85;;;0.70;;
22024;SDS011;11176;51.448;6.650;2023-01-09T02:00:14;2.97;;;0.93;;
22024;SDS011;11176;51.448;6.650;2023-01-09T02:02:40;2.17;;;0.85;;
22024;SDS011;11176;51.448;6.650;2023-01-09T02:05:12;1.75;;;0.90;;
22024;SDS011;11176;51.448;6.650;2023-01-09T02:07:38;3.13;;;0.80;;
22024;SDS011;11176;51.448;6.650;2023-01-09T02:10:05;1.55;;;0.77;;
22024;SDS011;11176;51.448;6.650;2023-01-09T02:12:32;3.58;;;0.82;;
22024;SDS011;11176;51.448;6.650;2023-01-09T02:15:00;4.05;;;0.98;;
22024;SDS011;11176;51.448;6.650;2023-01-09T02:20:40;2.47;;;0.75;;
22024;SDS011;11176;51.448;6.650;2023-01-09T02:34:31;2.37;;;0.90;;
22024;SDS011;11176;51.448;6.650;2023-01-09T02:37:11;3.25;;;0.80;;
22024;SDS011;11176;51.448;6.650;2023-01-09T02:44:57;3.58;;;1.17;;
22024;SDS011;11176;51.448;6.650;2023-01-09T02:49:53;2.08;;;0.90;;
22024;SDS011;11176;51.448;6.650;2023-01-09T02:52:31;1.63;;;0.93;;
22024;SDS011;11176;51.448;6.650;2023-01-09T02:58:08;3.15;;;0.98;;
22024;SDS011;11176;51.448;6.650;2023-01-09T03:06:07;2.75;;;1.23;;
22024;SDS011;11176;51.448;6.650;2023-01-09T03:08:38;2.63;;;1.38;;
22024;SDS011;11176;51.448;6.650;2023-01-09T03:11:08;4.78;;;1.50;;
22024;SDS011;11176;51.448;6.650;2023-01-09T03:13:39;3.38;;;1.23;;
22024;SDS011;11176;51.448;6.650;2023-01-09T03:16:13;5.07;;;1.45;;
22024;SDS011;11176;51.448;6.650;2023-01-09T03:18:44;4.72;;;1.15;;
22024;SDS011;11176;51.448;6.650;2023-01-09T03:21:13;2.40;;;1.35;;
22024;SDS011;11176;51.448;6.650;2023-01-09T03:23:44;4.82;;;1.50;;
22024;SDS011;11176;51.448;6.650;2023-01-09T03:26:21;4.03;;;1.38;;
22024;SDS011;11176;51.448;6.650;2023-01-09T03:28:49;2.85;;;1.30;;
22024;SDS011;11176;51.448;6.650;2023-01-09T03:31:16;3.13;;;1.45;;
22024;SDS011;11176;51.448;6.650;2023-01-09T03:33:43;3.20;;;1.30;;
22024;SDS011;11176;51.448;6.650;2023-01-09T03:36:10;4.25;;;1.38;;
22024;SDS011;11176;51.448;6.650;2023-01-09T03:38:38;3.17;;;1.55;;
22024;SDS011;11176;51.448;6.650;2023-01-09T03:41:05;3.42;;;1.63;;
22024;SDS011;11176;51.448;6.650;2023-01-09T03:43:31;5.10;;;1.55;;
22024;SDS011;11176;51.448;6.650;2023-01-09T03:45:58;5.68;;;2.15;;
22024;SDS011;11176;51.448;6.650;2023-01-09T03:48:25;5.63;;;1.70;;
22024;SDS011;11176;51.448;6.650;2023-01-09T03:50:52;7.72;;;1.90;;
22024;SDS011;11176;51.448;6.650;2023-01-09T03:53:20;3.95;;;1.70;;
22024;SDS011;11176;51.448;6.650;2023-01-09T03:55:52;5.88;;;1.70;;
22024;SDS011;11176;51.448;6.650;2023-01-09T03:58:20;5.47;;;1.80;;
22024;SDS011;11176;51.448;6.650;2023-01-09T04:00:47;6.40;;;2.17;;
22024;SDS011;11176;51.448;6.650;2023-01-09T04:03:16;5.45;;;1.90;;
22024;SDS011;11176;51.448;6.650;2023-01-09T04:05:44;6.05;;;1.90;;
22024;SDS011;11176;51.448;6.650;2023-01-09T04:08:13;4.07;;;1.67;;
22024;SDS011;11176;51.448;6.650;2023-01-09T04:10:39;5.53;;;1.73;;
22024;SDS011;11176;51.448;6.650;2023-01-09T04:13:08;5.28;;;1.77;;
22024;SDS011;11176;51.448;6.650;2023-01-09T04:15:35;6.85;;;2.15;;
22024;SDS011;11176;51.448;6.650;2023-01-09T04:18:01;4.22;;;1.58;;
22024;SDS011;11176;51.448;6.650;2023-01-09T04:20:29;5.10;;;1.83;;
22024;SDS011;11176;51.448;6.650;2023-01-09T04:22:56;5.85;;;1.73;;
22024;SDS011;11176;51.448;6.650;2023-01-09T04:25:25;5.72;;;1.50;;
22024;SDS011;11176;51.448;6.650;2023-01-09T04:27:51;5.20;;;1.50;;
22024;SDS011;11176;51.448;6.650;2023-01-09T04:30:18;3.08;;;1.50;;
22024;SDS011;11176;51.448;6.650;2023-01-09T04:32:45;5.25;;;1.48;;
22024;SDS011;11176;51.448;6.650;2023-01-09T04:35:11;2.72;;;1.35;;
22024;SDS011;11176;51.448;6.650;2023-01-09T04:37:38;3.88;;;1.60;;
22024;SDS011;11176;51.448;6.650;2023-01-09T04:40:05;4.38;;;1.92;;
22024;SDS011;11176;51.448;6.650;2023-01-09T04:42:35;5.63;;;1.95;;
22024;SDS011;11176;51.448;6.650;2023-01-09T04:45:03;5.07;;;1.42;;
22024;SDS011;11176;51.448;6.650;2023-01-09T04:47:30;6.95;;;1.60;;
22024;SDS011;11176;51.448;6.650;2023-01-09T04:49:58;5.47;;;1.60;;
22024;SDS011;11176;51.448;6.650;2023-01-09T04:52:25;6.28;;;1.80;;
22024;SDS011;11176;51.448;6.650;2023-01-09T04:54:51;4.00;;;1.73;;
22024;SDS011;11176;51.448;6.650;2023-01-09T04:57:18;4.13;;;1.60;;
22024;SDS011;11176;51.448;6.650;2023-01-09T04:59:44;7.32;;;1.73;;
22024;SDS011;11176;51.448;6.650;2023-01-09T05:02:11;6.32;;;1.60;;
22024;SDS011;11176;51.448;6.650;2023-01-09T05:04:38;5.78;;;1.90;;
22024;SDS011;11176;51.448;6.650;2023-01-09T05:07:04;5.18;;;1.75;;
22024;SDS011;11176;51.448;6.650;2023-01-09T05:09:31;4.22;;;1.77;;
22024;SDS011;11176;51.448;6.650;2023-01-09T05:11:57;5.85;;;1.60;;
22024;SDS011;11176;51.448;6.650;2023-01-09T05:14:26;6.85;;;1.50;;
22024;SDS011;11176;51.448;6.650;2023-01-09T05:16:53;5.72;;;1.85;;
22024;SDS011;11176;51.448;6.650;2023-01-09T05:19:20;6.82;;;1.50;;
22024;SDS011;11176;51.448;6.650;2023-01-09T05:21:46;4.40;;;1.50;;
22024;SDS011;11176;51.448;6.650;2023-01-09T05:24:13;4.90;;;1.42;;
22024;SDS011;11176;51.448;6.650;2023-01-09T05:26:39;7.15;;;1.52;;
22024;SDS011;11176;51.448;6.650;2023-01-09T05:29:06;8.98;;;1.35;;
22024;SDS011;11176;51.448;6.650;2023-01-09T05:31:33;7.07;;;1.40;;
22024;SDS011;11176;51.448;6.650;2023-01-09T05:33:59;8.43;;;1.85;;
22024;SDS011;11176;51.448;6.650;2023-01-09T05:36:26;7.50;;;1.40;;
22024;SDS011;11176;51.448;6.650;2023-01-09T05:38:53;6.18;;;1.63;;
22024;SDS011;11176;51.448;6.650;2023-01-09T05:41:19;7.97;;;1.30;;
22024;SDS011;11176;51.448;6.650;2023-01-09T05:43:49;5.85;;;1.45;;
22024;SDS011;11176;51.448;6.650;2023-01-09T05:46:15;5.38;;;1.30;;
22024;SDS011;11176;51.448;6.650;2023-01-09T05:48:42;5.50;;;1.30;;
22024;SDS011;11176;51.448;6.650;2023-01-09T05:51:10;8.27;;;1.25;;
22024;SDS011;11176;51.448;6.650;2023-01-09T05:53:37;5.50;;;1.38;;
22024;SDS011;11176;51.448;6.650;2023-01-09T05:56:04;7.40;;;1.48;;
22024;SDS011;11176;51.448;6.650;2023-01-09T05:58:31;4.88;;;1.10;;
22024;SDS011;11176;51.448;6.650;2023-01-09T06:00:57;6.82;;;1.70;;
22024;SDS011;11176;51.448;6.650;2023-01-09T06:03:24;5.53;;;1.35;;
22024;SDS011;11176;51.448;6.650;2023-01-09T06:05:50;4.70;;;1.27;;
22024;SDS011;11176;51.448;6.650;2023-01-09T06:08:17;4.85;;;1.23;;
22024;SDS011;11176;51.448;6.650;2023-01-09T06:10:44;5.32;;;1.42;;
22024;SDS011;11176;51.448;6.650;2023-01-09T06:13:11;5.63;;;1.45;;
22024;SDS011;11176;51.448;6.650;2023-01-09T06:15:37;6.47;;;1.33;;
22024;SDS011;11176;51.448;6.650;2023-01-09T06:18:04;9.27;;;1.58;;
22024;SDS011;11176;51.448;6.650;2023-01-09T06:20:31;7.75;;;1.50;;
22024;SDS011;11176;51.448;6.650;2023-01-09T06:22:58;4.63;;;1.50;;
22024;SDS011;11176;51.448;6.650;2023-01-09T06:25:25;9.07;;;1.65;;
22024;SDS011;11176;51.448;6.650;2023-01-09T06:27:51;6.43;;;1.50;;
22024;SDS011;11176;51.448;6.650;2023-01-09T06:30:18;6.20;;;1.40;;
22024;SDS011;11176;51.448;6.650;2023-01-09T06:32:48;7.03;;;1.40;;
22024;SDS011;11176;51.448;6.650;2023-01-09T06:35:15;6.80;;;1.48;;
22024;SDS011;11176;51.448;6.650;2023-01-09T06:37:45;6.28;;;1.52;;
22024;SDS011;11176;51.448;6.650;2023-01-09T06:40:13;5.53;;;1.45;;
22024;SDS011;11176;51.448;6.650;2023-01-09T06:42:44;7.20;;;1.23;;
22024;SDS011;11176;51.448;6.650;2023-01-09T06:45:11;4.40;;;1.30;;
22024;SDS011;11176;51.448;6.650;2023-01-09T06:47:39;7.10;;;1.45;;
22024;SDS011;11176;51.448;6.650;2023-01-09T06:50:06;6.30;;;1.70;;
22024;SDS011;11176;51.448;6.650;2023-01-09T06:52:35;7.18;;;1.63;;
22024;SDS011;11176;51.448;6.650;2023-01-09T06:55:01;7.90;;;1.63;;
22024;SDS011;11176;51.448;6.650;2023-01-09T06:57:28;5.68;;;1.70;;
22024;SDS011;11176;51.448;6.650;2023-01-09T06:59:55;9.13;;;1.70;;
22024;SDS011;11176;51.448;6.650;2023-01-09T07:02:22;5.97;;;1.45;;
22024;SDS011;11176;51.448;6.650;2023-01-09T07:04:48;5.85;;;1.73;;
22024;SDS011;11176;51.448;6.650;2023-01-09T07:07:15;6.55;;;1.65;;
22024;SDS011;11176;51.448;6.650;2023-01-09T07:09:41;6.90;;;1.88;;
22024;SDS011;11176;51.448;6.650;2023-01-09T07:12:08;8.82;;;1.27;;
22024;SDS011;11176;51.448;6.650;2023-01-09T07:14:35;8.88;;;1.88;;
22024;SDS011;11176;51.448;6.650;2023-01-09T07:17:02;9.70;;;1.80;;
22024;SDS011;11176;51.448;6.650;2023-01-09T07:19:28;5.88;;;1.58;;
22024;SDS011;11176;51.448;6.650;2023-01-09T07:21:55;7.57;;;1.98;;
22024;SDS011;11176;51.448;6.650;2023-01-09T07:24:22;4.70;;;1.55;;
22024;SDS011;11176;51.448;6.650;2023-01-09T07:26:48;4.75;;;1.40;;
22024;SDS011;11176;51.448;6.650;2023-01-09T07:29:15;9.82;;;2.25;;
22024;SDS011;11176;51.448;6.650;2023-01-09T07:31:41;8.35;;;1.77;;
22024;SDS011;11176;51.448;6.650;2023-01-09T07:34:08;7.18;;;1.48;;
22024;SDS011;11176;51.448;6.650;2023-01-09T07:36:34;9.10;;;1.80;;
22024;SDS011;11176;51.448;6.650;2023-01-09T07:39:01;14.48;;;1.65;;
22024;SDS011;11176;51.448;6.650;2023-01-09T07:41:27;6.22;;;1.50;;
22024;SDS011;11176;51.448;6.650;2023-01-09T07:43:55;9.10;;;2.15;;
22024;SDS011;11176;51.448;6.650;2023-01-09T07:46:22;7.47;;;1.55;;
22024;SDS011;11176;51.448;6.650;2023-01-09T07:48:48;10.85;;;1.90;;
22024;SDS011;11176;51.448;6.650;2023-01-09T07:51:15;6.82;;;2.30;;
22024;SDS011;11176;51.448;6.650;2023-01-09T07:53:41;6.70;;;1.27;;
22024;SDS011;11176;51.448;6.650;2023-01-09T07:56:08;6.65;;;1.67;;
22024;SDS011;11176;51.448;6.650;2023-01-09T07:58:34;7.28;;;1.95;;
22024;SDS011;11176;51.448;6.650;2023-01-09T08:01:01;9.38;;;2.13;;
22024;SDS011;11176;51.448;6.650;2023-01-09T08:03:27;8.13;;;1.92;;
22024;SDS011;11176;51.448;6.650;2023-01-09T08:05:54;9.52;;;2.00;;
22024;SDS011;11176;51.448;6.650;2023-01-09T08:08:20;8.02;;;2.10;;
22024;SDS011;11176;51.448;6.650;2023-01-09T08:10:48;6.13;;;1.77;;
22024;SDS011;11176;51.448;6.650;2023-01-09T08:13:14;7.15;;;1.83;;
22024;SDS011;11176;51.448;6.650;2023-01-09T08:15:41;8.68;;;1.98;;
22024;SDS011;11176;51.448;6.650;2023-01-09T08:18:08;8.45;;;2.08;;
22024;SDS011;11176;51.448;6.650;2023-01-09T08:20:34;7.53;;;1.80;;
22024;SDS011;11176;51.448;6.650;2023-01-09T08:23:01;7.30;;;1.88;;
22024;SDS011;11176;51.448;6.650;2023-01-09T08:25:27;6.57;;;1.92;;
22024;SDS011;11176;51.448;6.650;2023-01-09T08:27:54;10.68;;;2.38;;
22024;SDS011;11176;51.448;6.650;2023-01-09T08:30:21;10.00;;;2.67;;
22024;SDS011;11176;51.448;6.650;2023-01-09T08:32:51;8.68;;;2.00;;
22024;SDS011;11176;51.448;6.650;2023-01-09T08:35:19;8.25;;;2.00;;
22024;SDS011;11176;51.448;6.650;2023-01-09T08:37:46;11.65;;;2.35;;
22024;SDS011;11176;51.448;6.650;2023-01-09T08:40:14;14.43;;;2.65;;
22024;SDS011;11176;51.448;6.650;2023-01-09T08:42:42;9.27;;;1.90;;
22024;SDS011;11176;51.448;6.650;2023-01-09T08:45:27;7.88;;;1.98;;
22024;SDS011;11176;51.448;6.650;2023-01-09T08:48:12;9.23;;;1.80;;
22024;SDS011;11176;51.448;6.650;2023-01-09T08:50:39;13.02;;;2.35;;
22024;SDS011;11176;51.448;6.650;2023-01-09T08:53:06;7.65;;;2.00;;
22024;SDS011;11176;51.448;6.650;2023-01-09T08:55:33;9.73;;;2.30;;
22024;SDS011;11176;51.448;6.650;2023-01-09T08:57:59;15.50;;;2.72;;
22024;SDS011;11176;51.448;6.650;2023-01-09T09:00:26;8.45;;;2.35;;
22024;SDS011;11176;51.448;6.650;2023-01-09T09:02:54;9.88;;;2.42;;
22024;SDS011;11176;51.448;6.650;2023-01-09T09:05:22;8.57;;;2.38;;
22024;SDS011;11176;51.448;6.650;2023-01-09T09:07:50;10.43;;;2.45;;
22024;SDS011;11176;51.448;6.650;2023-01-09T09:10:20;7.22;;;2.10;;
22024;SDS011;11176;51.448;6.650;2023-01-09T09:12:52;9.80;;;2.30;;
22024;SDS011;11176;51.448;6.650;2023-01-09T09:15:21;8.33;;;1.93;;
22024;SDS011;11176;51.448;6.650;2023-01-09T09:17:52;7.72;;;2.05;;
22024;SDS011;11176;51.448;6.650;2023-01-09T09:20:20;8.88;;;1.95;;
22024;SDS011;11176;51.448;6.650;2023-01-09T09:22:47;9.40;;;1.83;;
22024;SDS011;11176;51.448;6.650;2023-01-09T09:25:14;10.13;;;2.10;;
22024;SDS011;11176;51.448;6.650;2023-01-09T09:27:41;9.90;;;2.03;;
22024;SDS011;11176;51.448;6.650;2023-01-09T09:30:08;4.97;;;1.92;;
22024;SDS011;11176;51.448;6.650;2023-01-09T09:32:36;5.97;;;1.88;;
22024;SDS011;11176;51.448;6.650;2023-01-09T09:35:04;9.75;;;2.20;;
22024;SDS011;11176;51.448;6.650;2023-01-09T09:37:31;6.50;;;1.75;;
22024;SDS011;11176;51.448;6.650;2023-01-09T09:39:58;10.73;;;1.98;;
22024;SDS011;11176;51.448;6.650;2023-01-09T09:42:40;8.25;;;2.20;;
22024;SDS011;11176;51.448;6.650;2023-01-09T09:45:52;7.18;;;2.20;;
22024;SDS011;11176;51.448;6.650;2023-01-09T09:48:37;12.23;;;3.95;;
22024;SDS011;11176;51.448;6.650;2023-01-09T09:54:19;12.63;;;2.70;;
22024;SDS011;11176;51.448;6.650;2023-01-09T09:56:50;7.65;;;2.28;;
22024;SDS011;11176;51.448;6.650;2023-01-09T09:59:21;6.50;;;2.13;;
22024;SDS011;11176;51.448;6.650;2023-01-09T10:01:59;7.13;;;2.00;;
22024;SDS011;11176;51.448;6.650;2023-01-09T10:04:31;9.07;;;2.03;;
22024;SDS011;11176;51.448;6.650;2023-01-09T10:07:00;8.95;;;2.10;;
22024;SDS011;11176;51.448;6.650;2023-01-09T10:09:41;7.75;;;2.15;;
22024;SDS011;11176;51.448;6.650;2023-01-09T10:12:27;7.95;;;2.38;;
22024;SDS011;11176;51.448;6.650;2023-01-09T10:14:57;10.07;;;2.10;;
22024;SDS011;11176;51.448;6.650;2023-01-09T10:28:29;11.18;;;1.75;;
22024;SDS011;11176;51.448;6.650;2023-01-09T10:36:49;8.60;;;1.77;;
22024;SDS011;11176;51.448;6.650;2023-01-09T10:39:45;7.32;;;1.65;;
22024;SDS011;11176;51.448;6.650;2023-01-09T10:42:40;7.13;;;1.48;;
22024;SDS011;11176;51.448;6.650;2023-01-09T10:48:05;5.70;;;1.50;;
22024;SDS011;11176;51.448;6.650;2023-01-09T10:50:42;8.18;;;1.75;;
22024;SDS011;11176;51.448;6.650;2023-01-09T10:53:30;6.47;;;1.75;;
22024;SDS011;11176;51.448;6.650;2023-01-09T10:56:07;9.50;;;1.70;;
22024;SDS011;11176;51.448;6.650;2023-01-09T10:58:44;4.93;;;1.77;;
22024;SDS011;11176;51.448;6.650;2023-01-09T11:01:10;6.18;;;1.80;;
22024;SDS011;11176;51.448;6.650;2023-01-09T11:03:37;9.77;;;2.10;;
22024;SDS011;11176;51.448;6.650;2023-01-09T11:06:07;6.30;;;1.67;;
22024;SDS011;11176;51.448;6.650;2023-01-09T11:08:45;6.63;;;1.85;;
22024;SDS011;11176;51.448;6.650;2023-01-09T11:11:38;7.05;;;1.80;;
22024;SDS011;11176;51.448;6.650;2023-01-09T11:14:12;5.05;;;1.38;;
22024;SDS011;11176;51.448;6.650;2023-01-09T11:16:51;5.53;;;1.65;;
22024;SDS011;11176;51.448;6.650;2023-01-09T11:19:19;7.57;;;1.98;;
22024;SDS011;11176;51.448;6.650;2023-01-09T11:21:47;5.40;;;1.60;;
22024;SDS011;11176;51.448;6.650;2023-01-09T11:26:44;5.07;;;1.80;;
22024;SDS011;11176;51.448;6.650;2023-01-09T11:29:12;5.68;;;1.52;;
22024;SDS011;11176;51.448;6.650;2023-01-09T11:31:40;5.68;;;1.40;;
22024;SDS011;11176;51.448;6.650;2023-01-09T11:34:19;6.32;;;1.73;;
22024;SDS011;11176;51.448;6.650;2023-01-09T11:36:48;5.57;;;1.73;;
22024;SDS011;11176;51.448;6.650;2023-01-09T11:39:21;7.28;;;1.65;;
22024;SDS011;11176;51.448;6.650;2023-01-09T11:41:54;6.70;;;2.00;;
22024;SDS011;11176;51.448;6.650;2023-01-09T11:44:23;6.15;;;1.77;;
22024;SDS011;11176;51.448;6.650;2023-01-09T11:46:51;6.13;;;1.90;;
22024;SDS011;11176;51.448;6.650;2023-01-09T11:49:20;4.25;;;1.88;;
22024;SDS011;11176;51.448;6.650;2023-01-09T11:54:52;6.07;;;2.30;;
22024;SDS011;11176;51.448;6.650;2023-01-09T11:57:21;4.40;;;1.83;;
22024;SDS011;11176;51.448;6.650;2023-01-09T11:59:50;6.00;;;1.92;;
22024;SDS011;11176;51.448;6.650;2023-01-09T12:10:18;7.70;;;1.90;;
22024;SDS011;11176;51.448;6.650;2023-01-09T12:13:13;6.15;;;1.75;;
22024;SDS011;11176;51.448;6.650;2023-01-09T12:35:21;5.60;;;1.75;;
22024;SDS011;11176;51.448;6.650;2023-01-09T12:38:02;5.20;;;1.60;;
22024;SDS011;11176;51.448;6.650;2023-01-09T12:46:29;3.97;;;1.70;;
22024;SDS011;11176;51.448;6.650;2023-01-09T12:52:02;7.18;;;1.75;;
22024;SDS011;11176;51.448;6.650;2023-01-09T12:57:09;6.82;;;1.90;;
22024;SDS011;11176;51.448;6.650;2023-01-09T12:59:47;6.93;;;1.98;;
22024;SDS011;11176;51.448;6.650;2023-01-09T13:02:23;5.60;;;2.10;;
22024;SDS011;11176;51.448;6.650;2023-01-09T13:07:48;7.10;;;2.92;;
22024;SDS011;11176;51.448;6.650;2023-01-09T13:13:15;10.10;;;3.05;;
22024;SDS011;11176;51.448;6.650;2023-01-09T13:15:48;4.85;;;1.75;;
22024;SDS011;11176;51.448;6.650;2023-01-09T13:18:30;6.03;;;1.90;;
22024;SDS011;11176;51.448;6.650;2023-01-09T13:21:01;7.88;;;2.13;;
22024;SDS011;11176;51.448;6.650;2023-01-09T13:25:59;6.68;;;2.20;;
22024;SDS011;11176;51.448;6.650;2023-01-09T13:28:34;5.27;;;1.97;;
22024;SDS011;11176;51.448;6.650;2023-01-09T13:31:12;8.63;;;2.50;;
22024;SDS011;11176;51.448;6.650;2023-01-09T13:33:45;7.93;;;1.67;;
22024;SDS011;11176;51.448;6.650;2023-01-09T13:36:23;5.78;;;2.13;;
22024;SDS011;11176;51.448;6.650;2023-01-09T13:38:53;5.28;;;2.00;;
22024;SDS011;11176;51.448;6.650;2023-01-09T13:41:21;4.40;;;2.10;;
22024;SDS011;11176;51.448;6.650;2023-01-09T13:44:29;7.13;;;2.40;;
22024;SDS011;11176;51.448;6.650;2023-01-09T13:46:58;5.00;;;1.85;;
22024;SDS011;11176;51.448;6.650;2023-01-09T13:52:01;5.10;;;2.00;;
22024;SDS011;11176;51.448;6.650;2023-01-09T13:59:46;5.73;;;2.17;;
22024;SDS011;11176;51.448;6.650;2023-01-09T14:04:59;4.00;;;1.88;;
22024;SDS011;11176;51.448;6.650;2023-01-09T14:07:36;5.78;;;2.33;;
22024;SDS011;11176;51.448;6.650;2023-01-09T14:10:05;4.88;;;1.90;;
22024;SDS011;11176;51.448;6.650;2023-01-09T14:12:45;6.72;;;2.20;;
22024;SDS011;11176;51.448;6.650;2023-01-09T14:15:22;7.93;;;2.47;;
22024;SDS011;11176;51.448;6.650;2023-01-09T14:20:43;7.05;;;2.30;;
22024;SDS011;11176;51.448;6.650;2023-01-09T14:23:19;9.15;;;2.33;;
22024;SDS011;11176;51.448;6.650;2023-01-09T14:26:14;6.50;;;2.10;;
22024;SDS011;11176;51.448;6.650;2023-01-09T14:28:44;4.55;;;2.20;;
22024;SDS011;11176;51.448;6.650;2023-01-09T14:31:25;6.95;;;2.38;;
22024;SDS011;11176;51.448;6.650;2023-01-09T14:36:58;8.48;;;2.20;;
22024;SDS011;11176;51.448;6.650;2023-01-09T14:39:27;7.93;;;2.42;;
22024;SDS011;11176;51.448;6.650;2023-01-09T14:41:58;5.82;;;2.60;;
22024;SDS011;11176;51.448;6.650;2023-01-09T14:53:04;9.02;;;3.63;;
22024;SDS011;11176;51.448;6.650;2023-01-09T14:56:16;5.10;;;1.70;;
22024;SDS011;11176;51.448;6.650;2023-01-09T15:01:27;6.60;;;2.17;;
22024;SDS011;11176;51.448;6.650;2023-01-09T15:03:58;6.18;;;2.35;;
22024;SDS011;11176;51.448;6.650;2023-01-09T15:06:28;6.28;;;2.03;;
22024;SDS011;11176;51.448;6.650;2023-01-09T15:09:21;6.85;;;2.40;;
22024;SDS011;11176;51.448;6.650;2023-01-09T15:11:52;8.15;;;3.22;;
22024;SDS011;11176;51.448;6.650;2023-01-09T15:14:24;6.90;;;2.58;;
22024;SDS011;11176;51.448;6.650;2023-01-09T15:16:57;5.43;;;2.72;;
22024;SDS011;11176;51.448;6.650;2023-01-09T15:19:26;6.15;;;2.22;;
22024;SDS011;11176;51.448;6.650;2023-01-09T15:21:57;4.65;;;2.20;;
22024;SDS011;11176;51.448;6.650;2023-01-09T15:24:29;5.38;;;2.53;;
22024;SDS011;11176;51.448;6.650;2023-01-09T15:27:03;7.25;;;2.53;;
22024;SDS011;11176;51.448;6.650;2023-01-09T15:29:35;7.22;;;2.80;;
22024;SDS011;11176;51.448;6.650;2023-01-09T15:32:03;7.70;;;3.05;;
22024;SDS011;11176;51.448;6.650;2023-01-09T15:34:33;6.82;;;2.72;;
22024;SDS011;11176;51.448;6.650;2023-01-09T15:37:00;8.95;;;2.92;;
22024;SDS011;11176;51.448;6.650;2023-01-09T15:39:29;5.97;;;2.92;;
22024;SDS011;11176;51.448;6.650;2023-01-09T15:42:01;9.40;;;3.20;;
22024;SDS011;11176;51.448;6.650;2023-01-09T15:44:47;5.70;;;3.10;;
22024;SDS011;11176;51.448;6.650;2023-01-09T15:47:21;5.93;;;3.53;;
22024;SDS011;11176;51.448;6.650;2023-01-09T15:49:53;5.90;;;3.65;;
22024;SDS011;11176;51.448;6.650;2023-01-09T15:52:21;11.98;;;4.32;;
22024;SDS011;11176;51.448;6.650;2023-01-09T15:54:48;9.05;;;4.13;;
22024;SDS011;11176;51.448;6.650;2023-01-09T15:59:51;7.00;;;3.50;;
22024;SDS011;11176;51.448;6.650;2023-01-09T16:02:19;8.98;;;3.70;;
22024;SDS011;11176;51.448;6.650;2023-01-09T16:05:06;6.18;;;3.90;;
22024;SDS011;11176;51.448;6.650;2023-01-09T16:07:43;9.40;;;4.30;;
22024;SDS011;11176;51.448;6.650;2023-01-09T16:10:21;8.05;;;3.78;;
22024;SDS011;11176;51.448;6.650;2023-01-09T16:12:50;11.27;;;3.97;;
22024;SDS011;11176;51.448;6.650;2023-01-09T16:15:17;7.63;;;3.60;;
22024;SDS011;11176;51.448;6.650;2023-01-09T16:20:43;6.07;;;3.20;;
22024;SDS011;11176;51.448;6.650;2023-01-09T16:23:28;14.25;;;8.02;;
22024;SDS011;11176;51.448;6.650;2023-01-09T16:26:32;16.23;;;7.13;;
22024;SDS011;11176;51.448;6.650;2023-01-09T16:28:53;11.40;;;6.05;;
22024;SDS011;11176;51.448;6.650;2023-01-09T16:31:21;10.45;;;5.00;;
22024;SDS011;11176;51.448;6.650;2023-01-09T16:33:57;14.68;;;8.20;;
22024;SDS011;11176;51.448;6.650;2023-01-09T16:36:26;17.63;;;6.32;;
22024;SDS011;11176;51.448;6.650;2023-01-09T16:38:53;16.65;;;7.93;;
22024;SDS011;11176;51.448;6.650;2023-01-09T16:41:22;13.63;;;7.53;;
22024;SDS011;11176;51.448;6.650;2023-01-09T16:44:07;10.05;;;5.28;;
22024;SDS011;11176;51.448;6.650;2023-01-09T16:46:35;10.77;;;5.05;;
22024;SDS011;11176;51.448;6.650;2023-01-09T16:51:43;9.40;;;4.00;;
22024;SDS011;11176;51.448;6.650;2023-01-09T16:54:11;9.10;;;3.92;;
22024;SDS011;11176;51.448;6.650;2023-01-09T16:56:37;10.65;;;4.20;;
22024;SDS011;11176;51.448;6.650;2023-01-09T16:59:09;10.55;;;4.63;;
22024;SDS011;11176;51.448;6.650;2023-01-09T17:01:38;11.02;;;5.18;;
22024;SDS011;11176;51.448;6.650;2023-01-09T17:04:12;10.23;;;4.90;;
22024;SDS011;11176;51.448;6.650;2023-01-09T17:06:40;9.95;;;4.63;;
22024;SDS011;11176;51.448;6.650;2023-01-09T17:09:10;10.70;;;4.38;;
22024;SDS011;11176;51.448;6.650;2023-01-09T17:11:39;7.25;;;4.25;;
22024;SDS011;11176;51.448;6.650;2023-01-09T17:14:06;9.57;;;4.28;;
22024;SDS011;11176;51.448;6.650;2023-01-09T17:16:34;12.82;;;5.20;;
22024;SDS011;11176;51.448;6.650;2023-01-09T17:19:02;10.73;;;5.68;;
22024;SDS011;11176;51.448;6.650;2023-01-09T17:21:28;11.48;;;5.20;;
22024;SDS011;11176;51.448;6.650;2023-01-09T17:23:56;10.73;;;4.93;;
22024;SDS011;11176;51.448;6.650;2023-01-09T17:26:43;7.75;;;3.78;;
22024;SDS011;11176;51.448;6.650;2023-01-09T17:29:32;9.30;;;3.97;;
22024;SDS011;11176;51.448;6.650;2023-01-09T17:32:00;7.15;;;3.80;;